sensor_id;sensor_type;location;lat;lon;timestamp;temperature;humidity
46492;DHT22;32206;51.446;6.792;2022-10-15T00:00:31;15.20;99.90
46492;DHT22;32206;51.446;6.792;2022-10-15T00:02:56;15.20;99.90
46492;DHT22;32206;51.446;6.792;2022-10-15T00:05:22;15.20;99.90
46492;DHT22;32206;51.446;6.792;2022-10-15T00:07:48;15.30;99.90
46492;DHT22;32206;51.446;6.792;2022-10-15T00:10:14;15.10;99.90
46492;DHT22;32206;51.446;6.792;2022-10-15T00:12:40;15.10;99.90
46492;DHT22;32206;51.446;6.792;2022-10-15T00:15:06;15.20;99.90
46492;DHT22;32206;51.446;6.792;2022-10-15T00:17:33;15.10;99.90
46492;DHT22;32206;51.446;6.792;2022-10-15T00:19:59;15.10;99.90
46492;DHT22;32206;51.446;6.792;2022-10-15T00:22:24;15.20;99.90
46492;DHT22;32206;51.446;6.792;2022-10-15T00:24:50;15.00;99.90
46492;DHT22;32206;51.446;6.792;2022-10-15T00:27:15;15.10;99.90
46492;DHT22;32206;51.446;6.792;2022-10-15T00:29:41;15.00;99.90
46492;DHT22;32206;51.446;6.792;2022-10-15T00:32:07;15.00;99.90
46492;DHT22;32206;51.446;6.792;2022-10-15T00:34:33;15.00;99.90
46492;DHT22;32206;51.446;6.792;2022-10-15T00:36:58;15.00;99.90
46492;DHT22;32206;51.446;6.792;2022-10-15T00:39:24;15.10;99.90
46492;DHT22;32206;51.446;6.792;2022-10-15T00:41:49;14.90;99.90
46492;DHT22;32206;51.446;6.792;2022-10-15T00:49:30;15.00;99.90
46492;DHT22;32206;51.446;6.792;2022-10-15T00:52:01;14.90;99.90
46492;DHT22;32206;51.446;6.792;2022-10-15T00:54:35;14.90;99.90
46492;DHT22;32206;51.446;6.792;2022-10-15T00:57:01;14.80;99.90
46492;DHT22;32206;51.446;6.792;2022-10-15T00:59:29;14.80;99.90
46492;DHT22;32206;51.446;6.792;2022-10-15T01:01:59;14.80;99.90
46492;DHT22;32206;51.446;6.792;2022-10-15T01:04:25;14.80;99.90
46492;DHT22;32206;51.446;6.792;2022-10-15T01:06:51;14.80;99.90
46492;DHT22;32206;51.446;6.792;2022-10-15T01:09:17;15.20;99.90
46492;DHT22;32206;51.446;6.792;2022-10-15T01:11:54;14.80;99.90
46492;DHT22;32206;51.446;6.792;2022-10-15T01:17:06;14.70;99.90
46492;DHT22;32206;51.446;6.792;2022-10-15T01:19:54;14.70;99.90
46492;DHT22;32206;51.446;6.792;2022-10-15T01:22:56;14.70;99.90
46492;DHT22;32206;51.446;6.792;2022-10-15T01:27:57;14.70;99.90
46492;DHT22;32206;51.446;6.792;2022-10-15T01:30:37;15.10;99.90
46492;DHT22;32206;51.446;6.792;2022-10-15T01:36:07;14.60;99.90
46492;DHT22;32206;51.446;6.792;2022-10-15T01:41:26;14.90;99.90
46492;DHT22;32206;51.446;6.792;2022-10-15T01:44:03;14.60;99.90
46492;DHT22;32206;51.446;6.792;2022-10-15T01:46:39;14.60;99.90
46492;DHT22;32206;51.446;6.792;2022-10-15T01:49:08;14.50;99.90
46492;DHT22;32206;51.446;6.792;2022-10-15T01:51:37;14.50;99.90
46492;DHT22;32206;51.446;6.792;2022-10-15T01:54:05;14.50;99.90
46492;DHT22;32206;51.446;6.792;2022-10-15T01:56:33;14.50;99.90
46492;DHT22;32206;51.446;6.792;2022-10-15T01:59:02;14.50;99.90
46492;DHT22;32206;51.446;6.792;2022-10-15T02:01:28;14.40;99.90
46492;DHT22;32206;51.446;6.792;2022-10-15T02:03:54;14.70;99.90
46492;DHT22;32206;51.446;6.792;2022-10-15T02:06:31;14.40;99.90
46492;DHT22;32206;51.446;6.792;2022-10-15T02:09:15;14.40;99.90
46492;DHT22;32206;51.446;6.792;2022-10-15T02:12:17;14.40;99.90
46492;DHT22;32206;51.446;6.792;2022-10-15T02:15:18;14.40;99.90
46492;DHT22;32206;51.446;6.792;2022-10-15T02:20:30;14.40;99.90
46492;DHT22;32206;51.446;6.792;2022-10-15T02:23:22;14.50;99.90
46492;DHT22;32206;51.446;6.792;2022-10-15T02:25:51;14.30;99.90
46492;DHT22;32206;51.446;6.792;2022-10-15T02:28:18;14.40;99.90
46492;DHT22;32206;51.446;6.792;2022-10-15T02:30:47;14.40;99.90
46492;DHT22;32206;51.446;6.792;2022-10-15T02:33:15;14.40;99.90
46492;DHT22;32206;51.446;6.792;2022-10-15T02:35:43;14.40;99.90
46492;DHT22;32206;51.446;6.792;2022-10-15T02:38:12;14.30;99.90
46492;DHT22;32206;51.446;6.792;2022-10-15T02:40:40;14.30;99.90
46492;DHT22;32206;51.446;6.792;2022-10-15T02:43:09;14.30;99.90
46492;DHT22;32206;51.446;6.792;2022-10-15T02:45:36;14.30;99.90
46492;DHT22;32206;51.446;6.792;2022-10-15T02:48:01;14.30;99.90
46492;DHT22;32206;51.446;6.792;2022-10-15T02:50:27;14.30;99.90
46492;DHT22;32206;51.446;6.792;2022-10-15T02:52:53;14.30;99.90
46492;DHT22;32206;51.446;6.792;2022-10-15T02:55:18;14.30;99.90
46492;DHT22;32206;51.446;6.792;2022-10-15T02:57:44;14.40;99.90
46492;DHT22;32206;51.446;6.792;2022-10-15T03:00:10;14.30;99.90
46492;DHT22;32206;51.446;6.792;2022-10-15T03:02:35;14.20;99.90
46492;DHT22;32206;51.446;6.792;2022-10-15T03:05:01;14.30;99.90
46492;DHT22;32206;51.446;6.792;2022-10-15T03:07:27;14.20;99.90
46492;DHT22;32206;51.446;6.792;2022-10-15T03:09:52;14.20;99.90
46492;DHT22;32206;51.446;6.792;2022-10-15T03:12:18;14.20;99.90
46492;DHT22;32206;51.446;6.792;2022-10-15T03:14:51;14.20;99.90
46492;DHT22;32206;51.446;6.792;2022-10-15T03:17:16;14.20;99.90
46492;DHT22;32206;51.446;6.792;2022-10-15T03:19:42;14.20;99.90
46492;DHT22;32206;51.446;6.792;2022-10-15T03:22:08;14.10;99.90
46492;DHT22;32206;51.446;6.792;2022-10-15T03:24:33;14.10;99.90
46492;DHT22;32206;51.446;6.792;2022-10-15T03:26:59;14.10;99.90
46492;DHT22;32206;51.446;6.792;2022-10-15T03:29:25;14.20;99.90
46492;DHT22;32206;51.446;6.792;2022-10-15T03:31:51;14.10;99.90
46492;DHT22;32206;51.446;6.792;2022-10-15T03:34:17;14.30;99.90
46492;DHT22;32206;51.446;6.792;2022-10-15T03:36:43;14.10;99.90
46492;DHT22;32206;51.446;6.792;2022-10-15T03:39:10;14.10;99.90
46492;DHT22;32206;51.446;6.792;2022-10-15T03:41:36;14.10;99.90
46492;DHT22;32206;51.446;6.792;2022-10-15T03:44:03;14.20;99.90
46492;DHT22;32206;51.446;6.792;2022-10-15T03:46:29;14.10;99.90
46492;DHT22;32206;51.446;6.792;2022-10-15T03:48:55;14.10;99.90
46492;DHT22;32206;51.446;6.792;2022-10-15T03:51:20;14.10;99.90
46492;DHT22;32206;51.446;6.792;2022-10-15T03:53:46;14.20;99.90
46492;DHT22;32206;51.446;6.792;2022-10-15T03:56:12;14.10;99.90
46492;DHT22;32206;51.446;6.792;2022-10-15T03:58:37;14.10;99.90
46492;DHT22;32206;51.446;6.792;2022-10-15T04:01:10;14.10;99.90
46492;DHT22;32206;51.446;6.792;2022-10-15T04:03:36;14.10;99.90
46492;DHT22;32206;51.446;6.792;2022-10-15T04:06:02;14.20;99.90
46492;DHT22;32206;51.446;6.792;2022-10-15T04:08:28;14.10;99.90
46492;DHT22;32206;51.446;6.792;2022-10-15T04:10:53;14.20;99.90
46492;DHT22;32206;51.446;6.792;2022-10-15T04:13:19;14.10;99.90
46492;DHT22;32206;51.446;6.792;2022-10-15T04:15:44;14.00;99.90
46492;DHT22;32206;51.446;6.792;2022-10-15T04:18:11;14.10;99.90
46492;DHT22;32206;51.446;6.792;2022-10-15T04:20:37;14.00;99.90
46492;DHT22;32206;51.446;6.792;2022-10-15T04:23:03;14.20;99.90
46492;DHT22;32206;51.446;6.792;2022-10-15T04:25:28;14.00;99.90
46492;DHT22;32206;51.446;6.792;2022-10-15T04:27:54;14.00;99.90
46492;DHT22;32206;51.446;6.792;2022-10-15T04:30:20;14.00;99.90
46492;DHT22;32206;51.446;6.792;2022-10-15T04:32:45;14.30;99.90
46492;DHT22;32206;51.446;6.792;2022-10-15T04:35:11;14.00;99.90
46492;DHT22;32206;51.446;6.792;2022-10-15T04:37:37;14.00;99.90
46492;DHT22;32206;51.446;6.792;2022-10-15T04:40:03;14.10;99.90
46492;DHT22;32206;51.446;6.792;2022-10-15T04:42:30;14.00;99.90
46492;DHT22;32206;51.446;6.792;2022-10-15T04:44:56;14.10;99.90
46492;DHT22;32206;51.446;6.792;2022-10-15T04:47:22;14.10;99.90
46492;DHT22;32206;51.446;6.792;2022-10-15T04:49:47;14.10;99.90
46492;DHT22;32206;51.446;6.792;2022-10-15T04:52:13;14.00;99.90
46492;DHT22;32206;51.446;6.792;2022-10-15T04:54:39;14.00;99.90
46492;DHT22;32206;51.446;6.792;2022-10-15T04:57:05;14.20;99.90
46492;DHT22;32206;51.446;6.792;2022-10-15T04:59:31;14.10;99.90
46492;DHT22;32206;51.446;6.792;2022-10-15T05:01:56;14.00;99.90
46492;DHT22;32206;51.446;6.792;2022-10-15T05:04:22;14.00;99.90
46492;DHT22;32206;51.446;6.792;2022-10-15T05:06:47;14.00;99.90
46492;DHT22;32206;51.446;6.792;2022-10-15T05:09:13;14.00;99.90
46492;DHT22;32206;51.446;6.792;2022-10-15T05:11:39;14.10;99.90
46492;DHT22;32206;51.446;6.792;2022-10-15T05:14:05;14.00;99.90
46492;DHT22;32206;51.446;6.792;2022-10-15T05:16:32;14.00;99.90
46492;DHT22;32206;51.446;6.792;2022-10-15T05:19:04;14.10;99.90
46492;DHT22;32206;51.446;6.792;2022-10-15T05:21:30;14.10;99.90
46492;DHT22;32206;51.446;6.792;2022-10-15T05:23:57;14.10;99.90
46492;DHT22;32206;51.446;6.792;2022-10-15T05:26:24;14.10;99.90
46492;DHT22;32206;51.446;6.792;2022-10-15T05:28:50;14.10;99.90
46492;DHT22;32206;51.446;6.792;2022-10-15T05:31:18;14.10;99.90
46492;DHT22;32206;51.446;6.792;2022-10-15T05:33:45;14.00;99.90
46492;DHT22;32206;51.446;6.792;2022-10-15T05:38:49;14.10;99.90
46492;DHT22;32206;51.446;6.792;2022-10-15T05:41:14;14.10;99.90
46492;DHT22;32206;51.446;6.792;2022-10-15T05:43:40;14.00;99.90
46492;DHT22;32206;51.446;6.792;2022-10-15T05:46:06;14.00;99.90
46492;DHT22;32206;51.446;6.792;2022-10-15T05:48:32;14.00;99.90
46492;DHT22;32206;51.446;6.792;2022-10-15T05:51:02;14.00;99.90
46492;DHT22;32206;51.446;6.792;2022-10-15T05:53:28;14.10;99.90
46492;DHT22;32206;51.446;6.792;2022-10-15T05:55:54;14.10;99.90
46492;DHT22;32206;51.446;6.792;2022-10-15T05:58:23;14.00;99.90
46492;DHT22;32206;51.446;6.792;2022-10-15T06:00:53;14.00;99.90
46492;DHT22;32206;51.446;6.792;2022-10-15T06:03:19;14.10;99.90
46492;DHT22;32206;51.446;6.792;2022-10-15T06:05:45;14.00;99.90
46492;DHT22;32206;51.446;6.792;2022-10-15T06:08:10;14.00;99.90
46492;DHT22;32206;51.446;6.792;2022-10-15T06:10:36;14.00;99.90
46492;DHT22;32206;51.446;6.792;2022-10-15T06:13:03;14.00;99.90
46492;DHT22;32206;51.446;6.792;2022-10-15T06:15:29;14.00;99.90
46492;DHT22;32206;51.446;6.792;2022-10-15T06:17:54;14.00;99.90
46492;DHT22;32206;51.446;6.792;2022-10-15T06:20:20;14.00;99.90
46492;DHT22;32206;51.446;6.792;2022-10-15T06:22:45;14.00;99.90
46492;DHT22;32206;51.446;6.792;2022-10-15T06:25:11;14.00;99.90
46492;DHT22;32206;51.446;6.792;2022-10-15T06:27:37;14.00;99.90
46492;DHT22;32206;51.446;6.792;2022-10-15T06:30:03;14.00;99.90
46492;DHT22;32206;51.446;6.792;2022-10-15T06:32:28;14.00;99.90
46492;DHT22;32206;51.446;6.792;2022-10-15T06:34:54;14.00;99.90
46492;DHT22;32206;51.446;6.792;2022-10-15T06:37:20;14.00;99.90
46492;DHT22;32206;51.446;6.792;2022-10-15T06:39:45;14.00;99.90
46492;DHT22;32206;51.446;6.792;2022-10-15T06:42:11;14.20;99.90
46492;DHT22;32206;51.446;6.792;2022-10-15T06:44:38;14.00;99.90
46492;DHT22;32206;51.446;6.792;2022-10-15T06:47:04;14.00;99.90
46492;DHT22;32206;51.446;6.792;2022-10-15T06:49:29;14.40;99.90
46492;DHT22;32206;51.446;6.792;2022-10-15T06:51:55;14.10;99.90
46492;DHT22;32206;51.446;6.792;2022-10-15T06:54:20;14.10;99.90
46492;DHT22;32206;51.446;6.792;2022-10-15T06:56:46;14.10;99.90
46492;DHT22;32206;51.446;6.792;2022-10-15T06:59:12;14.10;99.90
46492;DHT22;32206;51.446;6.792;2022-10-15T07:01:37;14.20;99.90
46492;DHT22;32206;51.446;6.792;2022-10-15T07:04:03;14.40;99.90
46492;DHT22;32206;51.446;6.792;2022-10-15T07:06:28;14.20;99.90
46492;DHT22;32206;51.446;6.792;2022-10-15T07:08:54;14.20;99.90
46492;DHT22;32206;51.446;6.792;2022-10-15T07:11:20;14.20;99.90
46492;DHT22;32206;51.446;6.792;2022-10-15T07:13:45;14.20;99.90
46492;DHT22;32206;51.446;6.792;2022-10-15T07:16:11;14.30;99.90
46492;DHT22;32206;51.446;6.792;2022-10-15T07:18:37;14.30;99.90
46492;DHT22;32206;51.446;6.792;2022-10-15T07:21:05;14.40;99.90
46492;DHT22;32206;51.446;6.792;2022-10-15T07:23:31;14.40;99.90
46492;DHT22;32206;51.446;6.792;2022-10-15T07:25:58;14.40;99.90
46492;DHT22;32206;51.446;6.792;2022-10-15T07:28:24;14.40;99.90
46492;DHT22;32206;51.446;6.792;2022-10-15T07:30:50;14.50;99.90
46492;DHT22;32206;51.446;6.792;2022-10-15T07:33:16;14.50;99.90
46492;DHT22;32206;51.446;6.792;2022-10-15T07:35:41;14.70;99.90
46492;DHT22;32206;51.446;6.792;2022-10-15T07:38:07;14.60;99.90
46492;DHT22;32206;51.446;6.792;2022-10-15T07:40:32;14.60;99.90
46492;DHT22;32206;51.446;6.792;2022-10-15T07:42:58;14.60;99.90
46492;DHT22;32206;51.446;6.792;2022-10-15T07:45:25;14.60;99.90
46492;DHT22;32206;51.446;6.792;2022-10-15T07:47:51;14.60;99.90
46492;DHT22;32206;51.446;6.792;2022-10-15T07:50:18;14.70;99.90
46492;DHT22;32206;51.446;6.792;2022-10-15T07:52:44;14.70;99.90
46492;DHT22;32206;51.446;6.792;2022-10-15T07:55:09;14.70;99.90
46492;DHT22;32206;51.446;6.792;2022-10-15T07:57:35;14.70;99.90
46492;DHT22;32206;51.446;6.792;2022-10-15T08:00:01;14.70;99.90
46492;DHT22;32206;51.446;6.792;2022-10-15T08:02:27;14.80;99.90
46492;DHT22;32206;51.446;6.792;2022-10-15T08:04:52;14.90;99.90
46492;DHT22;32206;51.446;6.792;2022-10-15T08:07:18;14.90;99.90
46492;DHT22;32206;51.446;6.792;2022-10-15T08:09:44;14.90;99.90
46492;DHT22;32206;51.446;6.792;2022-10-15T08:12:09;15.00;99.90
46492;DHT22;32206;51.446;6.792;2022-10-15T08:14:35;14.90;99.90
46492;DHT22;32206;51.446;6.792;2022-10-15T08:17:02;15.00;99.90
46492;DHT22;32206;51.446;6.792;2022-10-15T08:19:28;15.00;99.90
46492;DHT22;32206;51.446;6.792;2022-10-15T08:21:54;14.90;99.90
46492;DHT22;32206;51.446;6.792;2022-10-15T08:24:19;15.00;99.90
46492;DHT22;32206;51.446;6.792;2022-10-15T08:26:45;15.10;99.90
46492;DHT22;32206;51.446;6.792;2022-10-15T08:29:11;15.10;99.90
46492;DHT22;32206;51.446;6.792;2022-10-15T08:31:38;15.10;99.90
46492;DHT22;32206;51.446;6.792;2022-10-15T08:34:04;15.20;99.90
46492;DHT22;32206;51.446;6.792;2022-10-15T08:36:30;15.40;99.90
46492;DHT22;32206;51.446;6.792;2022-10-15T08:38:56;15.30;99.90
46492;DHT22;32206;51.446;6.792;2022-10-15T08:41:26;15.30;99.90
46492;DHT22;32206;51.446;6.792;2022-10-15T08:43:53;15.40;99.90
46492;DHT22;32206;51.446;6.792;2022-10-15T08:46:31;15.40;99.90
46492;DHT22;32206;51.446;6.792;2022-10-15T08:48:59;15.50;99.90
46492;DHT22;32206;51.446;6.792;2022-10-15T08:51:50;15.50;99.90
46492;DHT22;32206;51.446;6.792;2022-10-15T08:54:19;15.90;99.90
46492;DHT22;32206;51.446;6.792;2022-10-15T08:56:47;15.80;99.90
46492;DHT22;32206;51.446;6.792;2022-10-15T08:59:31;15.70;99.90
46492;DHT22;32206;51.446;6.792;2022-10-15T09:07:23;15.80;99.90
46492;DHT22;32206;51.446;6.792;2022-10-15T09:09:52;15.90;99.90
46492;DHT22;32206;51.446;6.792;2022-10-15T09:12:44;16.00;99.90
46492;DHT22;32206;51.446;6.792;2022-10-15T09:15:18;16.00;99.90
46492;DHT22;32206;51.446;6.792;2022-10-15T09:17:47;16.30;99.90
46492;DHT22;32206;51.446;6.792;2022-10-15T09:20:17;16.10;99.90
46492;DHT22;32206;51.446;6.792;2022-10-15T09:22:44;16.20;99.90
46492;DHT22;32206;51.446;6.792;2022-10-15T09:25:18;16.30;99.90
46492;DHT22;32206;51.446;6.792;2022-10-15T09:27:46;16.40;99.90
46492;DHT22;32206;51.446;6.792;2022-10-15T09:30:45;16.50;99.90
46492;DHT22;32206;51.446;6.792;2022-10-15T09:33:34;16.50;99.90
46492;DHT22;32206;51.446;6.792;2022-10-15T09:39:16;16.60;99.90
46492;DHT22;32206;51.446;6.792;2022-10-15T09:44:40;16.70;99.90
46492;DHT22;32206;51.446;6.792;2022-10-15T09:47:26;16.70;99.60
46492;DHT22;32206;51.446;6.792;2022-10-15T09:49:52;16.70;99.50
46492;DHT22;32206;51.446;6.792;2022-10-15T09:57:51;16.80;99.50
46492;DHT22;32206;51.446;6.792;2022-10-15T10:00:17;16.80;99.50
46492;DHT22;32206;51.446;6.792;2022-10-15T10:02:43;16.80;99.20
46492;DHT22;32206;51.446;6.792;2022-10-15T10:05:38;16.80;99.30
46492;DHT22;32206;51.446;6.792;2022-10-15T10:08:13;16.80;99.90
46492;DHT22;32206;51.446;6.792;2022-10-15T10:10:41;16.80;99.90
46492;DHT22;32206;51.446;6.792;2022-10-15T10:13:18;16.80;99.90
46492;DHT22;32206;51.446;6.792;2022-10-15T10:15:46;16.80;99.90
46492;DHT22;32206;51.446;6.792;2022-10-15T10:18:22;16.80;99.90
46492;DHT22;32206;51.446;6.792;2022-10-15T10:20:58;16.80;99.90
46492;DHT22;32206;51.446;6.792;2022-10-15T10:23:29;16.80;99.90
46492;DHT22;32206;51.446;6.792;2022-10-15T10:25:57;16.70;99.90
46492;DHT22;32206;51.446;6.792;2022-10-15T10:31:13;17.00;99.90
46492;DHT22;32206;51.446;6.792;2022-10-15T10:33:43;17.10;99.90
46492;DHT22;32206;51.446;6.792;2022-10-15T10:36:30;17.10;99.90
46492;DHT22;32206;51.446;6.792;2022-10-15T10:44:25;17.20;99.90
46492;DHT22;32206;51.446;6.792;2022-10-15T10:47:08;17.10;99.90
46492;DHT22;32206;51.446;6.792;2022-10-15T10:49:38;17.00;99.90
46492;DHT22;32206;51.446;6.792;2022-10-15T10:52:05;17.10;99.90
46492;DHT22;32206;51.446;6.792;2022-10-15T10:54:31;16.90;99.90
46492;DHT22;32206;51.446;6.792;2022-10-15T10:57:01;16.80;99.90
46492;DHT22;32206;51.446;6.792;2022-10-15T10:59:37;16.80;99.90
46492;DHT22;32206;51.446;6.792;2022-10-15T11:02:11;16.80;99.90
46492;DHT22;32206;51.446;6.792;2022-10-15T11:04:38;16.80;99.90
46492;DHT22;32206;51.446;6.792;2022-10-15T11:07:05;17.10;99.90
46492;DHT22;32206;51.446;6.792;2022-10-15T11:17:35;16.70;99.90
46492;DHT22;32206;51.446;6.792;2022-10-15T11:20:22;16.70;99.90
46492;DHT22;32206;51.446;6.792;2022-10-15T11:34:00;16.80;99.90
46492;DHT22;32206;51.446;6.792;2022-10-15T11:36:43;16.80;99.90
46492;DHT22;32206;51.446;6.792;2022-10-15T11:42:31;16.80;99.90
46492;DHT22;32206;51.446;6.792;2022-10-15T11:45:29;16.90;99.90
46492;DHT22;32206;51.446;6.792;2022-10-15T11:48:17;16.90;99.90
46492;DHT22;32206;51.446;6.792;2022-10-15T11:51:06;16.90;99.90
46492;DHT22;32206;51.446;6.792;2022-10-15T11:56:33;17.00;99.90
46492;DHT22;32206;51.446;6.792;2022-10-15T12:01:42;17.10;99.90
46492;DHT22;32206;51.446;6.792;2022-10-15T12:04:17;17.10;99.90
46492;DHT22;32206;51.446;6.792;2022-10-15T12:06:47;17.10;99.90
46492;DHT22;32206;51.446;6.792;2022-10-15T12:09:23;17.10;99.90
46492;DHT22;32206;51.446;6.792;2022-10-15T12:11:54;17.20;99.90
46492;DHT22;32206;51.446;6.792;2022-10-15T12:17:24;17.20;99.90
46492;DHT22;32206;51.446;6.792;2022-10-15T12:20:19;17.30;99.90
46492;DHT22;32206;51.446;6.792;2022-10-15T12:28:23;17.30;99.90
46492;DHT22;32206;51.446;6.792;2022-10-15T12:31:01;17.30;99.90
46492;DHT22;32206;51.446;6.792;2022-10-15T12:33:44;17.30;99.90
46492;DHT22;32206;51.446;6.792;2022-10-15T12:36:26;17.40;99.90
46492;DHT22;32206;51.446;6.792;2022-10-15T12:44:06;17.50;99.90
46492;DHT22;32206;51.446;6.792;2022-10-15T12:46:39;17.60;99.90
46492;DHT22;32206;51.446;6.792;2022-10-15T12:51:51;17.70;99.90
46492;DHT22;32206;51.446;6.792;2022-10-15T12:56:58;17.70;99.90
46492;DHT22;32206;51.446;6.792;2022-10-15T13:02:35;17.80;99.90
46492;DHT22;32206;51.446;6.792;2022-10-15T13:05:02;17.90;99.90
46492;DHT22;32206;51.446;6.792;2022-10-15T13:07:30;18.00;99.90
46492;DHT22;32206;51.446;6.792;2022-10-15T13:09:58;18.00;99.90
46492;DHT22;32206;51.446;6.792;2022-10-15T13:12:26;18.10;99.90
46492;DHT22;32206;51.446;6.792;2022-10-15T13:14:56;18.10;99.90
46492;DHT22;32206;51.446;6.792;2022-10-15T13:17:23;18.20;99.90
46492;DHT22;32206;51.446;6.792;2022-10-15T13:20:04;18.30;99.90
46492;DHT22;32206;51.446;6.792;2022-10-15T13:22:34;18.30;99.90
46492;DHT22;32206;51.446;6.792;2022-10-15T13:25:01;18.40;99.90
46492;DHT22;32206;51.446;6.792;2022-10-15T13:27:35;18.40;99.90
46492;DHT22;32206;51.446;6.792;2022-10-15T13:30:10;18.50;99.90
46492;DHT22;32206;51.446;6.792;2022-10-15T13:32:46;18.50;99.90
46492;DHT22;32206;51.446;6.792;2022-10-15T13:35:16;18.50;99.90
46492;DHT22;32206;51.446;6.792;2022-10-15T13:37:43;18.60;99.90
46492;DHT22;32206;51.446;6.792;2022-10-15T13:40:35;18.70;99.90
46492;DHT22;32206;51.446;6.792;2022-10-15T13:43:05;18.80;99.90
46492;DHT22;32206;51.446;6.792;2022-10-15T13:45:32;18.90;99.90
46492;DHT22;32206;51.446;6.792;2022-10-15T13:47:58;18.90;99.90
46492;DHT22;32206;51.446;6.792;2022-10-15T13:55:25;19.20;99.90
46492;DHT22;32206;51.446;6.792;2022-10-15T13:58:04;19.30;99.90
46492;DHT22;32206;51.446;6.792;2022-10-15T14:00:33;19.20;99.90
46492;DHT22;32206;51.446;6.792;2022-10-15T14:03:29;19.30;99.90
46492;DHT22;32206;51.446;6.792;2022-10-15T14:08:35;19.30;99.90
46492;DHT22;32206;51.446;6.792;2022-10-15T14:11:01;19.30;99.90
46492;DHT22;32206;51.446;6.792;2022-10-15T14:13:27;19.30;99.90
46492;DHT22;32206;51.446;6.792;2022-10-15T14:18:58;19.20;99.90
46492;DHT22;32206;51.446;6.792;2022-10-15T14:21:33;19.20;99.90
46492;DHT22;32206;51.446;6.792;2022-10-15T14:24:09;19.20;99.90
46492;DHT22;32206;51.446;6.792;2022-10-15T14:26:37;19.20;99.90
46492;DHT22;32206;51.446;6.792;2022-10-15T14:29:03;19.10;99.90
46492;DHT22;32206;51.446;6.792;2022-10-15T14:34:00;19.00;99.90
46492;DHT22;32206;51.446;6.792;2022-10-15T14:36:28;18.90;99.90
46492;DHT22;32206;51.446;6.792;2022-10-15T14:38:54;18.80;99.90
46492;DHT22;32206;51.446;6.792;2022-10-15T14:41:30;18.70;99.90
46492;DHT22;32206;51.446;6.792;2022-10-15T14:44:01;18.60;99.90
46492;DHT22;32206;51.446;6.792;2022-10-15T14:46:37;18.50;99.90
46492;DHT22;32206;51.446;6.792;2022-10-15T14:49:15;18.40;99.90
46492;DHT22;32206;51.446;6.792;2022-10-15T14:51:41;18.40;99.90
46492;DHT22;32206;51.446;6.792;2022-10-15T14:54:19;18.40;99.90
46492;DHT22;32206;51.446;6.792;2022-10-15T14:56:45;18.30;99.90
46492;DHT22;32206;51.446;6.792;2022-10-15T14:59:16;18.30;99.90
46492;DHT22;32206;51.446;6.792;2022-10-15T15:02:03;18.30;99.90
46492;DHT22;32206;51.446;6.792;2022-10-15T15:04:44;18.30;99.90
46492;DHT22;32206;51.446;6.792;2022-10-15T15:07:19;18.40;99.90
46492;DHT22;32206;51.446;6.792;2022-10-15T15:09:49;18.40;99.90
46492;DHT22;32206;51.446;6.792;2022-10-15T15:12:21;18.40;99.90
46492;DHT22;32206;51.446;6.792;2022-10-15T15:14:47;18.50;99.90
46492;DHT22;32206;51.446;6.792;2022-10-15T15:17:18;18.40;99.90
46492;DHT22;32206;51.446;6.792;2022-10-15T15:19:45;18.40;99.90
46492;DHT22;32206;51.446;6.792;2022-10-15T15:22:14;18.40;99.90
46492;DHT22;32206;51.446;6.792;2022-10-15T15:24:40;18.40;99.90
46492;DHT22;32206;51.446;6.792;2022-10-15T15:27:05;18.40;99.90
46492;DHT22;32206;51.446;6.792;2022-10-15T15:29:31;18.40;99.90
46492;DHT22;32206;51.446;6.792;2022-10-15T15:31:57;18.50;99.90
46492;DHT22;32206;51.446;6.792;2022-10-15T15:34:22;18.50;99.90
46492;DHT22;32206;51.446;6.792;2022-10-15T15:36:48;18.50;99.90
46492;DHT22;32206;51.446;6.792;2022-10-15T15:39:14;18.50;99.90
46492;DHT22;32206;51.446;6.792;2022-10-15T15:41:40;18.50;99.90
46492;DHT22;32206;51.446;6.792;2022-10-15T15:44:05;18.50;99.90
46492;DHT22;32206;51.446;6.792;2022-10-15T15:46:32;18.50;99.90
46492;DHT22;32206;51.446;6.792;2022-10-15T15:48:57;18.40;99.90
46492;DHT22;32206;51.446;6.792;2022-10-15T15:51:26;18.40;99.90
46492;DHT22;32206;51.446;6.792;2022-10-15T15:53:53;18.40;99.90
46492;DHT22;32206;51.446;6.792;2022-10-15T15:56:19;18.40;99.90
46492;DHT22;32206;51.446;6.792;2022-10-15T15:58:44;18.40;99.90
46492;DHT22;32206;51.446;6.792;2022-10-15T16:01:10;18.40;99.90
46492;DHT22;32206;51.446;6.792;2022-10-15T16:03:36;18.40;99.90
46492;DHT22;32206;51.446;6.792;2022-10-15T16:06:04;18.30;99.90
46492;DHT22;32206;51.446;6.792;2022-10-15T16:08:31;18.30;99.90
46492;DHT22;32206;51.446;6.792;2022-10-15T16:11:00;18.30;99.90
46492;DHT22;32206;51.446;6.792;2022-10-15T16:13:26;18.30;99.90
46492;DHT22;32206;51.446;6.792;2022-10-15T16:15:52;18.20;99.90
46492;DHT22;32206;51.446;6.792;2022-10-15T16:18:18;18.20;99.90
46492;DHT22;32206;51.446;6.792;2022-10-15T16:20:43;18.10;99.90
46492;DHT22;32206;51.446;6.792;2022-10-15T16:23:09;18.30;99.90
46492;DHT22;32206;51.446;6.792;2022-10-15T16:25:35;18.00;99.90
46492;DHT22;32206;51.446;6.792;2022-10-15T16:28:00;18.00;99.90
46492;DHT22;32206;51.446;6.792;2022-10-15T16:30:26;17.90;97.20
46492;DHT22;32206;51.446;6.792;2022-10-15T16:32:52;17.70;96.80
46492;DHT22;32206;51.446;6.792;2022-10-15T16:35:17;17.90;94.10
46492;DHT22;32206;51.446;6.792;2022-10-15T16:37:43;17.80;91.80
46492;DHT22;32206;51.446;6.792;2022-10-15T16:40:10;17.80;91.60
46492;DHT22;32206;51.446;6.792;2022-10-15T16:42:36;17.80;90.00
46492;DHT22;32206;51.446;6.792;2022-10-15T16:45:03;17.90;86.00
46492;DHT22;32206;51.446;6.792;2022-10-15T16:47:28;17.90;84.30
46492;DHT22;32206;51.446;6.792;2022-10-15T16:49:54;17.90;84.60
46492;DHT22;32206;51.446;6.792;2022-10-15T16:52:20;17.90;87.20
46492;DHT22;32206;51.446;6.792;2022-10-15T16:54:45;17.90;88.30
46492;DHT22;32206;51.446;6.792;2022-10-15T16:57:11;17.90;87.60
46492;DHT22;32206;51.446;6.792;2022-10-15T16:59:37;18.00;81.70
46492;DHT22;32206;51.446;6.792;2022-10-15T17:02:03;17.90;84.60
46492;DHT22;32206;51.446;6.792;2022-10-15T17:04:29;17.90;79.00
46492;DHT22;32206;51.446;6.792;2022-10-15T17:06:54;17.90;79.80
46492;DHT22;32206;51.446;6.792;2022-10-15T17:09:20;17.90;68.90
46492;DHT22;32206;51.446;6.792;2022-10-15T17:11:46;17.90;70.60
46492;DHT22;32206;51.446;6.792;2022-10-15T17:14:14;17.80;70.90
46492;DHT22;32206;51.446;6.792;2022-10-15T17:16:44;17.80;69.60
46492;DHT22;32206;51.446;6.792;2022-10-15T17:19:11;17.80;69.40
46492;DHT22;32206;51.446;6.792;2022-10-15T17:21:37;17.90;72.20
46492;DHT22;32206;51.446;6.792;2022-10-15T17:24:05;17.80;82.40
46492;DHT22;32206;51.446;6.792;2022-10-15T17:26:32;17.80;83.90
46492;DHT22;32206;51.446;6.792;2022-10-15T17:29:01;17.80;71.80
46492;DHT22;32206;51.446;6.792;2022-10-15T17:31:28;17.70;71.40